createdAt,value
2018-09-04T00:02:24.238Z,17.07
2018-09-04T00:04:52.701Z,17.06
2018-09-04T00:07:22.913Z,17.01
2018-09-04T00:09:52.052Z,16.93
2018-09-04T00:12:21.397Z,16.89
2018-09-04T00:14:49.878Z,16.84
2018-09-04T00:17:18.374Z,16.80
2018-09-04T00:19:46.794Z,16.80
2018-09-04T00:22:15.230Z,16.82
2018-09-04T00:24:43.942Z,16.86
2018-09-04T00:27:12.420Z,16.86
2018-09-04T00:29:40.862Z,16.86
2018-09-04T00:32:09.380Z,16.92
2018-09-04T00:34:37.886Z,16.95
2018-09-04T00:37:06.362Z,16.96
2018-09-04T00:39:34.816Z,16.98
2018-09-04T00:42:03.333Z,16.98
2018-09-04T00:44:31.770Z,17.00
2018-09-04T00:47:00.213Z,16.94
2018-09-04T00:49:28.717Z,16.83
2018-09-04T00:51:57.277Z,16.75
2018-09-04T00:54:25.777Z,16.61
2018-09-04T00:56:54.258Z,16.50
2018-09-04T00:59:22.763Z,16.35
2018-09-04T01:01:51.230Z,16.23
2018-09-04T01:04:19.737Z,16.08
2018-09-04T01:06:48.194Z,16.01
2018-09-04T01:09:20.245Z,16.02
2018-09-04T01:11:48.766Z,16.02
2018-09-04T01:14:17.226Z,16.03
2018-09-04T01:16:46.387Z,15.98
2018-09-04T01:19:15.194Z,15.99
2018-09-04T01:21:44.057Z,15.97
2018-09-04T01:24:12.901Z,15.98
2018-09-04T01:26:41.362Z,15.99
2018-09-04T01:29:09.892Z,15.94
2018-09-04T01:31:38.334Z,15.88
2018-09-04T01:34:06.858Z,15.85
2018-09-04T01:36:35.449Z,15.85
2018-09-04T01:39:04.518Z,15.82
2018-09-04T01:41:32.938Z,15.77
2018-09-04T01:44:01.453Z,15.68
2018-09-04T01:46:29.965Z,15.66
2018-09-04T01:48:58.366Z,15.79
2018-09-04T01:51:26.782Z,15.82
2018-09-04T01:53:55.293Z,15.82
2018-09-04T01:56:23.761Z,15.75
2018-09-04T01:58:52.169Z,15.73
2018-09-04T02:01:20.657Z,15.68
2018-09-04T02:03:49.079Z,15.65
2018-09-04T02:06:17.581Z,15.65
2018-09-04T02:08:47.058Z,15.65
2018-09-04T02:11:15.605Z,15.60
2018-09-04T02:13:44.313Z,15.56
2018-09-04T02:16:12.842Z,15.53
2018-09-04T02:18:41.298Z,15.56
2018-09-04T02:21:09.793Z,15.58
2018-09-04T02:23:38.281Z,15.58
2018-09-04T02:26:07.146Z,15.59
2018-09-04T02:28:35.713Z,15.58
2018-09-04T02:31:04.295Z,15.62
2018-09-04T02:33:32.690Z,15.67
2018-09-04T02:36:01.224Z,15.70
2018-09-04T02:38:29.741Z,15.70
2018-09-04T02:40:58.187Z,15.75
2018-09-04T02:43:26.613Z,15.75
2018-09-04T02:45:55.082Z,15.82
2018-09-04T02:48:23.485Z,15.86
2018-09-04T02:50:52.031Z,15.87
2018-09-04T02:53:20.452Z,15.86
2018-09-04T02:55:48.961Z,15.84
2018-09-04T02:58:17.503Z,15.79
2018-09-04T03:00:46.430Z,15.79
2018-09-04T03:03:14.913Z,15.77
2018-09-04T03:05:43.554Z,15.76
2018-09-04T03:08:11.962Z,15.79
2018-09-04T03:10:40.457Z,15.77
2018-09-04T03:13:08.909Z,15.77
2018-09-04T03:15:37.429Z,15.78
2018-09-04T03:18:05.965Z,15.76
2018-09-04T03:20:34.383Z,15.76
2018-09-04T03:23:02.989Z,15.73
2018-09-04T03:25:31.445Z,15.71
2018-09-04T03:27:59.913Z,15.71
2018-09-04T03:30:28.409Z,15.71
2018-09-04T03:32:56.862Z,15.67
2018-09-04T03:35:25.366Z,15.71
2018-09-04T03:37:53.842Z,15.78
2018-09-04T03:40:22.545Z,15.84
2018-09-04T03:42:51.061Z,15.86
2018-09-04T03:45:19.491Z,15.84
2018-09-04T03:47:47.973Z,15.81
2018-09-04T03:50:16.465Z,15.82
2018-09-04T03:52:45.709Z,15.81
2018-09-04T03:55:14.191Z,15.81
2018-09-04T03:57:42.630Z,15.81
2018-09-04T04:00:11.397Z,15.81
2018-09-04T04:02:40.099Z,15.81
2018-09-04T04:05:08.590Z,15.81
2018-09-04T04:07:37.055Z,15.74
2018-09-04T04:10:05.757Z,15.68
2018-09-04T04:12:34.240Z,15.64
2018-09-04T04:15:02.804Z,15.64
2018-09-04T04:17:31.442Z,15.62
2018-09-04T04:19:59.897Z,15.56
2018-09-04T04:22:28.382Z,15.49
2018-09-04T04:24:56.916Z,15.46
2018-09-04T04:27:25.334Z,15.45
2018-09-04T04:29:53.748Z,15.42
2018-09-04T04:32:22.186Z,15.41
2018-09-04T04:34:50.651Z,15.39
2018-09-04T04:37:19.240Z,15.36
2018-09-04T04:39:47.799Z,15.34
2018-09-04T04:42:16.354Z,15.33
2018-09-04T04:44:45.084Z,15.31
2018-09-04T04:47:13.599Z,15.35
2018-09-04T04:49:42.077Z,15.35
2018-09-04T04:52:10.570Z,15.42
2018-09-04T04:54:39.034Z,15.51
2018-09-04T04:57:07.552Z,15.58
2018-09-04T04:59:36.015Z,15.55
2018-09-04T05:02:04.550Z,15.55
2018-09-04T05:04:33.046Z,15.58
2018-09-04T05:07:01.589Z,15.64
2018-09-04T05:09:30.005Z,15.65
2018-09-04T05:11:58.510Z,15.65
2018-09-04T05:14:26.991Z,15.67
2018-09-04T05:16:55.602Z,15.78
2018-09-04T05:19:24.125Z,15.83
2018-09-04T05:21:52.701Z,15.90
2018-09-04T05:24:21.116Z,15.93
2018-09-04T05:26:49.601Z,15.97
2018-09-04T05:29:18.311Z,16.03
2018-09-04T05:31:52.286Z,16.02
2018-09-04T05:34:22.810Z,16.06
2018-09-04T05:36:51.543Z,16.07
2018-09-04T05:39:19.906Z,16.08
2018-09-04T05:41:48.374Z,16.13
2018-09-04T05:44:16.897Z,16.20
2018-09-04T05:46:47.610Z,16.17
2018-09-04T05:49:19.583Z,16.13
2018-09-04T05:51:48.094Z,16.17
2018-09-04T05:54:16.676Z,16.17
2018-09-04T05:56:45.353Z,16.16
2018-09-04T05:59:13.794Z,16.18
2018-09-04T06:01:42.273Z,16.21
2018-09-04T06:04:10.778Z,16.25
2018-09-04T06:06:39.229Z,16.24
2018-09-04T06:09:07.774Z,16.20
2018-09-04T06:11:36.182Z,16.12
2018-09-04T06:14:04.761Z,16.07
2018-09-04T06:16:33.250Z,16.05
2018-09-04T06:19:01.782Z,16.02
2018-09-04T06:21:30.209Z,16.03
2018-09-04T06:23:58.705Z,16.02
2018-09-04T06:26:27.169Z,16.02
2018-09-04T06:28:55.732Z,16.08
2018-09-04T06:31:24.151Z,16.16
2018-09-04T06:33:52.779Z,16.22
2018-09-04T06:36:21.394Z,16.29
2018-09-04T06:38:49.997Z,16.36
2018-09-04T06:41:18.670Z,16.48
2018-09-04T06:43:47.219Z,16.54
2018-09-04T06:46:15.653Z,16.60
2018-09-04T06:48:45.707Z,16.68
2018-09-04T06:51:14.158Z,16.81
2018-09-04T06:53:43.725Z,16.84
2018-09-04T06:56:12.166Z,16.87
2018-09-04T06:58:40.624Z,16.93
2018-09-04T07:01:09.126Z,16.99
2018-09-04T07:03:38.029Z,17.08
2018-09-04T07:06:06.881Z,17.22
2018-09-04T07:08:35.270Z,17.33
2018-09-04T07:11:03.813Z,17.38
2018-09-04T07:13:32.313Z,17.46
2018-09-04T07:16:00.969Z,17.56
2018-09-04T07:18:29.398Z,17.66
2018-09-04T07:20:57.881Z,17.77
2018-09-04T07:23:26.497Z,17.83
2018-09-04T07:25:55.090Z,17.81
2018-09-04T07:28:23.533Z,17.95
2018-09-04T07:30:52.270Z,17.97
2018-09-04T07:33:20.758Z,18.10
2018-09-04T07:35:49.298Z,18.14
2018-09-04T07:38:17.698Z,18.22
2018-09-04T07:40:46.502Z,18.33
2018-09-04T07:43:14.921Z,18.37
2018-09-04T07:45:43.395Z,18.46
2018-09-04T07:48:12.097Z,18.60
2018-09-04T07:50:40.598Z,18.63
2018-09-04T07:53:09.039Z,18.70
2018-09-04T07:55:37.570Z,18.71
2018-09-04T07:58:06.041Z,18.88
2018-09-04T08:00:34.565Z,18.92
2018-09-04T08:03:03.053Z,19.01
2018-09-04T08:05:31.565Z,19.01
2018-09-04T08:08:00.094Z,19.15
2018-09-04T08:10:32.278Z,19.28
2018-09-04T08:13:00.725Z,19.48
2018-09-04T08:15:29.210Z,19.55
2018-09-04T08:17:57.883Z,19.66
2018-09-04T08:20:26.928Z,19.70
2018-09-04T08:22:56.129Z,19.76
2018-09-04T08:25:25.502Z,19.83
2018-09-04T08:27:54.030Z,19.87
2018-09-04T08:30:22.788Z,19.92
2018-09-04T08:32:51.259Z,20.09
2018-09-04T08:35:19.694Z,20.09
2018-09-04T08:37:48.237Z,20.07
2018-09-04T08:40:16.645Z,20.05
2018-09-04T08:42:45.545Z,20.13
2018-09-04T08:45:14.057Z,20.32
2018-09-04T08:47:42.590Z,20.48
2018-09-04T08:50:11.161Z,20.61
2018-09-04T08:52:39.607Z,20.90
2018-09-04T08:55:08.085Z,20.97
2018-09-04T08:57:36.590Z,21.15
2018-09-04T09:00:05.089Z,21.24
2018-09-04T09:02:33.535Z,21.37
2018-09-04T09:05:02.085Z,21.50
2018-09-04T09:07:30.627Z,21.58
2018-09-04T09:09:59.066Z,21.75
2018-09-04T09:12:27.575Z,21.78
2018-09-04T09:14:56.072Z,22.01
2018-09-04T09:17:24.555Z,22.05
2018-09-04T09:22:20.902Z,22.46
2018-09-04T09:24:49.314Z,22.63
2018-09-04T09:27:17.968Z,22.71
2018-09-04T09:29:46.768Z,22.86
2018-09-04T09:32:15.346Z,22.83
2018-09-04T09:34:43.933Z,22.93
2018-09-04T09:37:12.354Z,23.23
2018-09-04T09:39:40.818Z,23.30
2018-09-04T09:42:12.373Z,23.94
2018-09-04T09:44:41.857Z,25.06
2018-09-04T09:47:10.294Z,25.81
2018-09-04T09:49:38.762Z,26.08
2018-09-04T09:52:07.249Z,26.21
2018-09-04T09:54:35.694Z,25.39
2018-09-04T09:57:04.283Z,24.70
2018-09-04T09:59:32.859Z,25.09
2018-09-04T10:02:06.643Z,25.87
2018-09-04T10:04:35.097Z,26.65
2018-09-04T10:07:03.609Z,27.36
2018-09-04T10:09:32.039Z,28.39
2018-09-04T10:12:00.557Z,28.74
2018-09-04T10:14:29.029Z,28.55
2018-09-04T10:16:57.522Z,29.24
2018-09-04T10:19:25.957Z,28.97
2018-09-04T10:21:54.509Z,30.22
2018-09-04T10:24:23.071Z,30.71
2018-09-04T10:26:51.533Z,31.82
2018-09-04T10:29:19.994Z,32.00
2018-09-04T10:31:48.454Z,32.41
2018-09-04T10:34:17.137Z,33.15
2018-09-04T10:36:46.722Z,32.73
2018-09-04T10:39:20.514Z,32.17
2018-09-04T10:41:48.962Z,31.97
2018-09-04T10:44:17.512Z,31.69
2018-09-04T10:46:46.174Z,29.81
2018-09-04T10:49:14.754Z,30.07
2018-09-04T10:51:43.199Z,30.24
2018-09-04T10:54:11.713Z,30.57
2018-09-04T10:56:40.127Z,29.20
2018-09-04T10:59:08.737Z,29.19
2018-09-04T11:01:37.208Z,30.34
2018-09-04T11:04:05.745Z,31.90
2018-09-04T11:06:34.264Z,32.25
2018-09-04T11:09:02.864Z,31.17
2018-09-04T11:11:31.326Z,32.41
2018-09-04T11:13:59.821Z,32.63
2018-09-04T11:16:28.313Z,32.97
2018-09-04T11:18:56.807Z,32.20
2018-09-04T11:21:25.367Z,32.15
2018-09-04T11:23:53.850Z,31.03
2018-09-04T11:26:22.421Z,29.51
2018-09-04T11:28:54.029Z,28.75
2018-09-04T11:31:22.510Z,30.61
2018-09-04T11:33:51.121Z,31.28
2018-09-04T11:36:19.632Z,32.26
2018-09-04T11:38:48.138Z,31.15
2018-09-04T11:41:16.575Z,29.65
2018-09-04T11:43:45.270Z,28.52
2018-09-04T11:46:13.746Z,28.18
2018-09-04T11:48:42.254Z,27.70
2018-09-04T11:51:12.019Z,27.56
2018-09-04T11:53:40.482Z,27.94
2018-09-04T11:56:08.896Z,30.89
2018-09-04T11:58:37.419Z,33.92
2018-09-04T12:01:14.748Z,35.21
2018-09-04T12:03:43.226Z,33.87
2018-09-04T12:06:11.633Z,32.78
2018-09-04T12:08:40.150Z,31.84
2018-09-04T12:11:08.675Z,31.35
2018-09-04T12:13:37.101Z,30.40
2018-09-04T12:16:05.687Z,29.99
2018-09-04T12:18:34.159Z,29.81
2018-09-04T12:21:06.652Z,29.41
2018-09-04T12:23:34.923Z,28.98
2018-09-04T12:26:04.793Z,28.87
2018-09-04T12:28:33.206Z,28.39
2018-09-04T12:31:01.998Z,28.68
2018-09-04T12:33:30.463Z,28.54
2018-09-04T12:35:59.122Z,28.47
2018-09-04T12:38:36.522Z,28.36
2018-09-04T12:41:10.320Z,27.83
2018-09-04T12:43:38.801Z,27.71
2018-09-04T12:46:07.625Z,27.51
2018-09-04T12:48:36.195Z,27.01
2018-09-04T12:51:04.789Z,30.84
2018-09-04T12:53:34.074Z,34.23
2018-09-04T12:56:02.640Z,36.69
2018-09-04T12:58:31.081Z,37.43
2018-09-04T13:00:59.841Z,39.02
2018-09-04T13:03:29.339Z,39.48
2018-09-04T13:05:57.916Z,37.39
2018-09-04T13:08:27.970Z,37.14
2018-09-04T13:10:56.465Z,39.30
2018-09-04T13:13:25.433Z,40.90
2018-09-04T13:15:55.600Z,40.93
2018-09-04T13:18:24.381Z,42.17
2018-09-04T13:20:52.877Z,42.10
2018-09-04T13:23:21.303Z,43.55
2018-09-04T13:25:49.830Z,42.92
2018-09-04T13:28:18.338Z,42.95
2018-09-04T13:30:47.427Z,43.81
2018-09-04T13:33:15.825Z,43.98
2018-09-04T13:35:45.025Z,43.82
2018-09-04T13:38:13.519Z,44.67
2018-09-04T13:40:42.025Z,44.15
2018-09-04T13:43:10.550Z,45.05
2018-09-04T13:45:39.001Z,44.19
2018-09-04T13:48:07.439Z,39.65
2018-09-04T13:50:36.014Z,39.94
2018-09-04T13:53:04.829Z,37.61
2018-09-04T13:55:33.320Z,35.93
2018-09-04T13:58:01.802Z,34.87
2018-09-04T14:00:30.338Z,33.53
2018-09-04T14:02:58.863Z,32.17
2018-09-04T14:05:27.353Z,32.31
2018-09-04T14:07:55.849Z,32.22
2018-09-04T14:10:24.386Z,32.72
2018-09-04T14:12:52.862Z,36.90
2018-09-04T14:15:21.435Z,39.45
2018-09-04T14:17:49.841Z,40.83
2018-09-04T14:20:18.334Z,42.03
2018-09-04T14:22:47.750Z,41.09
2018-09-04T14:25:16.198Z,41.37
2018-09-04T14:27:45.092Z,41.62
2018-09-04T14:32:41.058Z,41.43
2018-09-04T14:35:10.049Z,38.51
2018-09-04T14:37:38.527Z,40.14
2018-09-04T14:40:07.618Z,41.66
2018-09-04T14:42:36.119Z,42.23
2018-09-04T14:45:04.834Z,41.92
2018-09-04T14:47:33.341Z,43.22
2018-09-04T14:50:01.834Z,43.55
2018-09-04T14:52:30.331Z,43.43
2018-09-04T14:54:58.795Z,40.96
2018-09-04T14:57:27.327Z,39.03
2018-09-04T14:59:55.833Z,37.27
2018-09-04T15:02:24.294Z,35.88
2018-09-04T15:04:52.730Z,34.83
2018-09-04T15:07:21.305Z,35.98
2018-09-04T15:09:49.821Z,38.25
2018-09-04T15:12:18.328Z,40.46
2018-09-04T15:14:47.769Z,41.33
2018-09-04T15:17:16.290Z,40.95
2018-09-04T15:19:44.949Z,40.42
2018-09-04T15:22:13.487Z,41.68
2018-09-04T15:24:41.917Z,41.51
2018-09-04T15:27:12.874Z,42.26
2018-09-04T15:29:41.442Z,42.40
2018-09-04T15:32:10.041Z,42.19
2018-09-04T15:34:38.499Z,41.71
2018-09-04T15:37:07.044Z,42.21
2018-09-04T15:39:35.457Z,42.78
2018-09-04T15:42:04.062Z,42.11
2018-09-04T15:44:32.590Z,40.60
2018-09-04T15:47:01.080Z,40.22
2018-09-04T15:49:34.926Z,41.75
2018-09-04T15:52:03.869Z,41.96
2018-09-04T15:54:32.310Z,40.83
2018-09-04T15:57:00.915Z,40.55
2018-09-04T15:59:29.391Z,39.36
2018-09-04T16:01:58.009Z,40.27
2018-09-04T16:04:26.437Z,40.08
2018-09-04T16:06:54.970Z,39.31
2018-09-04T16:09:23.452Z,39.62
2018-09-04T16:11:51.876Z,39.38
2018-09-04T16:14:20.376Z,39.69
2018-09-04T16:16:48.884Z,40.13
2018-09-04T16:19:17.379Z,39.65
2018-09-04T16:21:46.249Z,39.78
2018-09-04T16:24:14.697Z,38.77
2018-09-04T16:26:43.232Z,39.07
2018-09-04T16:29:11.740Z,37.16
2018-09-04T16:31:40.437Z,37.80
2018-09-04T16:34:08.993Z,38.31
2018-09-04T16:36:37.506Z,37.29
2018-09-04T16:39:06.533Z,37.52
2018-09-04T16:41:35.066Z,38.04
2018-09-04T16:44:04.286Z,36.90
2018-09-04T16:46:32.694Z,37.32
2018-09-04T16:49:01.162Z,36.67
2018-09-04T16:51:29.606Z,34.38
2018-09-04T16:53:58.129Z,30.96
2018-09-04T16:56:26.579Z,29.55
2018-09-04T16:58:55.135Z,28.29
2018-09-04T17:01:23.531Z,27.38
2018-09-04T17:03:52.100Z,26.55
2018-09-04T17:06:20.520Z,26.08
2018-09-04T17:08:49.062Z,25.60
2018-09-04T17:11:17.729Z,25.46
2018-09-04T17:13:46.602Z,25.08
2018-09-04T17:16:15.061Z,24.96
2018-09-04T17:18:43.952Z,24.92
2018-09-04T17:21:12.529Z,24.77
2018-09-04T17:23:41.029Z,24.75
2018-09-04T17:26:09.479Z,24.71
2018-09-04T17:28:38.037Z,24.62
2018-09-04T17:31:06.518Z,24.48
2018-09-04T17:33:35.017Z,24.29
2018-09-04T17:36:03.584Z,24.24
2018-09-04T17:38:32.002Z,24.08
2018-09-04T17:41:00.493Z,23.90
2018-09-04T17:43:29.010Z,23.80
2018-09-04T17:45:57.641Z,23.60
2018-09-04T17:48:26.175Z,23.44
2018-09-04T17:50:54.697Z,23.36
2018-09-04T17:53:23.086Z,23.20
2018-09-04T17:55:51.585Z,23.06
2018-09-04T17:58:20.266Z,22.87
2018-09-04T18:00:48.822Z,22.74
2018-09-04T18:03:17.329Z,22.57
2018-09-04T18:05:46.513Z,22.46
2018-09-04T18:08:15.009Z,22.34
2018-09-04T18:10:43.525Z,22.25
2018-09-04T18:13:12.138Z,22.14
2018-09-04T18:15:40.576Z,22.13
2018-09-04T18:18:09.064Z,21.99
2018-09-04T18:20:37.544Z,21.85
2018-09-04T18:23:06.185Z,21.69
2018-09-04T18:25:34.690Z,21.61
2018-09-04T18:28:03.232Z,21.50
2018-09-04T18:30:31.673Z,21.45
2018-09-04T18:33:00.129Z,21.35
2018-09-04T18:35:28.676Z,21.22
2018-09-04T18:37:57.094Z,21.15
2018-09-04T18:40:25.639Z,21.12
2018-09-04T18:42:54.059Z,21.07
2018-09-04T18:45:33.807Z,21.06
2018-09-04T18:48:02.293Z,21.00
2018-09-04T18:50:40.645Z,20.87
2018-09-04T18:53:09.107Z,20.82
2018-09-04T18:55:37.602Z,20.85
2018-09-04T18:58:06.553Z,20.76
2018-09-04T19:00:35.031Z,20.77
2018-09-04T19:03:03.682Z,20.68
2018-09-04T19:05:32.274Z,20.65
2018-09-04T19:08:01.164Z,20.61
2018-09-04T19:10:30.039Z,20.55
2018-09-04T19:12:58.505Z,20.44
2018-09-04T19:15:27.439Z,20.33
2018-09-04T19:17:55.972Z,20.27
2018-09-04T19:20:24.569Z,20.21
2018-09-04T19:22:53.312Z,20.09
2018-09-04T19:25:21.914Z,20.01
2018-09-04T19:27:50.425Z,20.00
2018-09-04T19:30:18.922Z,20.06
2018-09-04T19:32:47.506Z,20.11
2018-09-04T19:35:16.251Z,20.22
2018-09-04T19:37:45.210Z,20.21
2018-09-04T19:40:13.726Z,20.10
2018-09-04T19:42:42.798Z,19.91
2018-09-04T19:45:11.445Z,19.76
2018-09-04T19:47:40.334Z,19.70
2018-09-04T19:50:10.122Z,19.85
2018-09-04T19:52:38.787Z,19.87
2018-09-04T19:55:08.937Z,19.71
2018-09-04T19:57:37.418Z,19.66
2018-09-04T20:00:06.677Z,19.58
2018-09-04T20:02:35.250Z,19.52
2018-09-04T20:05:04.097Z,19.41
2018-09-04T20:07:32.623Z,19.40
2018-09-04T20:10:01.239Z,19.31
2018-09-04T20:12:29.708Z,19.34
2018-09-04T20:14:58.183Z,19.36
2018-09-04T20:17:26.758Z,19.30
2018-09-04T20:19:55.251Z,19.14
2018-09-04T20:22:23.771Z,19.06
2018-09-04T20:24:52.287Z,18.99
2018-09-04T20:27:20.744Z,18.91
2018-09-04T20:29:49.203Z,18.82
2018-09-04T20:32:17.714Z,18.80
2018-09-04T20:34:46.542Z,18.67
2018-09-04T20:37:15.123Z,18.56
2018-09-04T20:39:43.646Z,18.45
2018-09-04T20:42:12.154Z,18.42
2018-09-04T20:44:40.758Z,18.39
2018-09-04T20:47:09.296Z,18.32
2018-09-04T20:49:37.914Z,18.25
2018-09-04T20:52:06.660Z,18.21
2018-09-04T20:54:35.178Z,18.26
2018-09-04T20:57:37.282Z,18.28
2018-09-04T21:00:18.653Z,18.34
2018-09-04T21:02:59.598Z,18.34
2018-09-04T21:05:39.461Z,18.25
2018-09-04T21:08:18.412Z,18.16
2018-09-04T21:10:48.144Z,18.10
2018-09-04T21:13:16.601Z,18.06
2018-09-04T21:15:45.486Z,17.99
2018-09-04T21:18:13.937Z,17.92
2018-09-04T21:20:42.485Z,17.89
2018-09-04T21:23:11.250Z,17.83
2018-09-04T21:25:39.777Z,17.77
2018-09-04T21:28:08.177Z,17.72
2018-09-04T21:30:36.691Z,17.72
2018-09-04T21:33:05.377Z,17.71
2018-09-04T21:35:33.904Z,17.64
2018-09-04T21:38:02.369Z,17.56
2018-09-04T21:40:30.801Z,17.48
2018-09-04T21:42:59.258Z,17.42
2018-09-04T21:45:28.806Z,17.37
2018-09-04T21:47:57.437Z,17.32
2018-09-04T21:50:25.915Z,17.27
2018-09-04T21:52:54.350Z,17.28
2018-09-04T21:55:22.818Z,17.22
2018-09-04T21:57:51.317Z,17.20
2018-09-04T22:00:26.433Z,17.21
2018-09-04T22:02:55.841Z,17.14
2018-09-04T22:05:25.284Z,17.09
2018-09-04T22:07:54.617Z,17.12
2018-09-04T22:10:23.225Z,17.17
2018-09-04T22:12:51.703Z,17.18
2018-09-04T22:15:20.298Z,17.16
2018-09-04T22:17:48.972Z,17.09
2018-09-04T22:20:17.397Z,17.08
2018-09-04T22:22:46.622Z,17.13
2018-09-04T22:25:15.099Z,17.05
2018-09-04T22:27:43.511Z,17.04
2018-09-04T22:30:12.029Z,17.00
2018-09-04T22:32:40.606Z,16.90
2018-09-04T22:35:09.102Z,16.83
2018-09-04T22:37:37.553Z,16.84
2018-09-04T22:40:06.888Z,16.82
2018-09-04T22:42:35.413Z,16.80
2018-09-04T22:45:03.932Z,16.74
2018-09-04T22:47:32.413Z,16.67
2018-09-04T22:50:06.359Z,16.60
2018-09-04T22:52:35.168Z,16.55
2018-09-04T22:55:06.889Z,16.52
2018-09-04T22:57:35.391Z,16.47
2018-09-04T23:00:03.949Z,16.41
2018-09-04T23:02:32.429Z,16.46
2018-09-04T23:05:00.893Z,16.50
2018-09-04T23:07:29.462Z,16.51
2018-09-04T23:09:58.026Z,16.46
2018-09-04T23:12:26.553Z,16.42
2018-09-04T23:14:55.013Z,16.38
2018-09-04T23:17:23.526Z,16.33
2018-09-04T23:19:51.961Z,16.28
2018-09-04T23:22:20.489Z,16.33
2018-09-04T23:24:48.970Z,16.45
2018-09-04T23:27:17.441Z,16.59
2018-09-04T23:29:46.365Z,16.72
2018-09-04T23:32:14.822Z,16.65
2018-09-04T23:34:43.257Z,16.60
2018-09-04T23:37:11.778Z,16.56
2018-09-04T23:39:40.222Z,16.49
2018-09-04T23:42:08.737Z,16.39
2018-09-04T23:44:37.218Z,16.33
2018-09-04T23:47:06.002Z,16.21
2018-09-04T23:49:34.453Z,16.10
2018-09-04T23:52:02.977Z,16.02
2018-09-04T23:54:31.473Z,15.92
2018-09-04T23:56:59.966Z,15.85
2018-09-04T23:59:28.381Z,15.81
